sensor_id;sensor_type;location;lat;lon;timestamp;P1;durP1;ratioP1;P2;durP2;ratioP2
24273;SDS011;12392;42.678;23.380;2023-06-22T00:00:48;17.02;;;13.30;;
24273;SDS011;12392;42.678;23.380;2023-06-22T00:03:14;19.83;;;14.68;;
24273;SDS011;12392;42.678;23.380;2023-06-22T00:05:40;28.88;;;21.45;;
24273;SDS011;12392;42.678;23.380;2023-06-22T00:08:06;30.35;;;24.13;;
24273;SDS011;12392;42.678;23.380;2023-06-22T00:10:32;32.92;;;25.52;;
24273;SDS011;12392;42.678;23.380;2023-06-22T00:12:58;35.40;;;28.60;;
24273;SDS011;12392;42.678;23.380;2023-06-22T00:15:23;34.28;;;25.92;;
24273;SDS011;12392;42.678;23.380;2023-06-22T00:17:49;37.45;;;25.15;;
24273;SDS011;12392;42.678;23.380;2023-06-22T00:20:16;31.42;;;23.98;;
24273;SDS011;12392;42.678;23.380;2023-06-22T00:22:43;33.15;;;22.50;;
24273;SDS011;12392;42.678;23.380;2023-06-22T00:25:09;27.20;;;20.40;;
24273;SDS011;12392;42.678;23.380;2023-06-22T00:27:35;23.95;;;19.52;;
24273;SDS011;12392;42.678;23.380;2023-06-22T00:30:01;21.13;;;15.38;;
24273;SDS011;12392;42.678;23.380;2023-06-22T00:32:28;17.10;;;14.75;;
24273;SDS011;12392;42.678;23.380;2023-06-22T00:34:53;20.08;;;14.88;;
24273;SDS011;12392;42.678;23.380;2023-06-22T00:37:19;18.67;;;14.23;;
24273;SDS011;12392;42.678;23.380;2023-06-22T00:39:47;19.17;;;13.70;;
24273;SDS011;12392;42.678;23.380;2023-06-22T00:42:13;14.95;;;13.35;;
24273;SDS011;12392;42.678;23.380;2023-06-22T00:44:39;17.40;;;12.88;;
24273;SDS011;12392;42.678;23.380;2023-06-22T00:47:05;17.30;;;13.88;;
24273;SDS011;12392;42.678;23.380;2023-06-22T00:49:32;20.42;;;14.80;;
24273;SDS011;12392;42.678;23.380;2023-06-22T00:51:58;19.95;;;13.93;;
24273;SDS011;12392;42.678;23.380;2023-06-22T00:54:24;17.83;;;13.52;;
24273;SDS011;12392;42.678;23.380;2023-06-22T00:56:51;15.32;;;13.70;;
24273;SDS011;12392;42.678;23.380;2023-06-22T00:59:20;15.18;;;13.40;;
24273;SDS011;12392;42.678;23.380;2023-06-22T01:01:46;16.85;;;13.00;;
24273;SDS011;12392;42.678;23.380;2023-06-22T01:04:12;17.40;;;14.23;;
24273;SDS011;12392;42.678;23.380;2023-06-22T01:07:01;17.58;;;14.13;;
24273;SDS011;12392;42.678;23.380;2023-06-22T01:09:31;16.25;;;13.32;;
24273;SDS011;12392;42.678;23.380;2023-06-22T01:12:00;18.90;;;12.80;;
24273;SDS011;12392;42.678;23.380;2023-06-22T01:14:35;16.60;;;12.65;;
24273;SDS011;12392;42.678;23.380;2023-06-22T01:22:13;19.42;;;12.57;;
24273;SDS011;12392;42.678;23.380;2023-06-22T01:27:32;16.40;;;12.05;;
24273;SDS011;12392;42.678;23.380;2023-06-22T01:30:07;13.93;;;11.32;;
24273;SDS011;12392;42.678;23.380;2023-06-22T01:32:35;15.00;;;11.32;;
24273;SDS011;12392;42.678;23.380;2023-06-22T01:35:03;13.45;;;11.48;;
24273;SDS011;12392;42.678;23.380;2023-06-22T01:37:30;13.90;;;11.20;;
24273;SDS011;12392;42.678;23.380;2023-06-22T01:39:57;13.90;;;12.23;;
24273;SDS011;12392;42.678;23.380;2023-06-22T01:42:24;14.38;;;11.40;;
24273;SDS011;12392;42.678;23.380;2023-06-22T01:44:50;13.65;;;11.15;;
24273;SDS011;12392;42.678;23.380;2023-06-22T01:47:17;17.77;;;12.55;;
24273;SDS011;12392;42.678;23.380;2023-06-22T01:49:43;17.17;;;13.00;;
24273;SDS011;12392;42.678;23.380;2023-06-22T01:52:09;16.80;;;12.18;;
24273;SDS011;12392;42.678;23.380;2023-06-22T01:54:34;19.10;;;12.40;;
24273;SDS011;12392;42.678;23.380;2023-06-22T01:57:01;20.33;;;12.88;;
24273;SDS011;12392;42.678;23.380;2023-06-22T02:02:15;22.92;;;12.07;;
24273;SDS011;12392;42.678;23.380;2023-06-22T02:07:09;16.40;;;13.32;;
24273;SDS011;12392;42.678;23.380;2023-06-22T02:09:37;15.48;;;13.50;;
24273;SDS011;12392;42.678;23.380;2023-06-22T02:12:04;23.10;;;17.15;;
24273;SDS011;12392;42.678;23.380;2023-06-22T02:14:30;55.63;;;48.90;;
24273;SDS011;12392;42.678;23.380;2023-06-22T02:16:56;58.97;;;51.47;;
24273;SDS011;12392;42.678;23.380;2023-06-22T02:19:24;59.10;;;52.78;;
24273;SDS011;12392;42.678;23.380;2023-06-22T02:21:50;43.05;;;38.35;;
24273;SDS011;12392;42.678;23.380;2023-06-22T02:24:16;44.00;;;38.80;;
24273;SDS011;12392;42.678;23.380;2023-06-22T02:26:42;40.83;;;36.40;;
24273;SDS011;12392;42.678;23.380;2023-06-22T02:29:10;31.92;;;28.42;;
24273;SDS011;12392;42.678;23.380;2023-06-22T02:31:36;27.42;;;24.52;;
24273;SDS011;12392;42.678;23.380;2023-06-22T02:34:01;23.92;;;21.38;;
24273;SDS011;12392;42.678;23.380;2023-06-22T02:36:27;30.92;;;23.98;;
24273;SDS011;12392;42.678;23.380;2023-06-22T02:38:55;27.98;;;22.25;;
24273;SDS011;12392;42.678;23.380;2023-06-22T02:41:23;25.33;;;21.45;;
24273;SDS011;12392;42.678;23.380;2023-06-22T02:43:49;23.38;;;20.70;;
24273;SDS011;12392;42.678;23.380;2023-06-22T02:46:15;22.73;;;17.90;;
24273;SDS011;12392;42.678;23.380;2023-06-22T02:48:41;20.48;;;18.33;;
24273;SDS011;12392;42.678;23.380;2023-06-22T02:51:06;20.30;;;17.52;;
24273;SDS011;12392;42.678;23.380;2023-06-22T02:53:32;20.17;;;17.50;;
24273;SDS011;12392;42.678;23.380;2023-06-22T02:55:58;21.35;;;18.85;;
24273;SDS011;12392;42.678;23.380;2023-06-22T02:58:26;23.88;;;18.98;;
24273;SDS011;12392;42.678;23.380;2023-06-22T03:00:51;38.90;;;33.90;;
24273;SDS011;12392;42.678;23.380;2023-06-22T03:03:18;68.63;;;56.63;;
24273;SDS011;12392;42.678;23.380;2023-06-22T03:05:44;82.10;;;68.28;;
24273;SDS011;12392;42.678;23.380;2023-06-22T03:08:10;64.07;;;50.75;;
24273;SDS011;12392;42.678;23.380;2023-06-22T03:10:36;56.88;;;46.63;;
24273;SDS011;12392;42.678;23.380;2023-06-22T03:13:02;24.45;;;15.60;;
24273;SDS011;12392;42.678;23.380;2023-06-22T03:15:28;26.83;;;15.80;;
24273;SDS011;12392;42.678;23.380;2023-06-22T03:17:57;25.27;;;14.43;;
24273;SDS011;12392;42.678;23.380;2023-06-22T03:20:23;22.10;;;16.55;;
24273;SDS011;12392;42.678;23.380;2023-06-22T03:22:50;21.83;;;18.00;;
24273;SDS011;12392;42.678;23.380;2023-06-22T03:25:15;19.50;;;17.45;;
24273;SDS011;12392;42.678;23.380;2023-06-22T03:27:41;24.90;;;18.48;;
24273;SDS011;12392;42.678;23.380;2023-06-22T03:30:09;22.52;;;15.75;;
24273;SDS011;12392;42.678;23.380;2023-06-22T03:32:35;18.38;;;13.77;;
24273;SDS011;12392;42.678;23.380;2023-06-22T03:35:01;14.60;;;12.88;;
24273;SDS011;12392;42.678;23.380;2023-06-22T03:37:27;16.60;;;12.70;;
24273;SDS011;12392;42.678;23.380;2023-06-22T03:39:53;17.75;;;12.32;;
24273;SDS011;12392;42.678;23.380;2023-06-22T03:42:19;14.77;;;12.52;;
24273;SDS011;12392;42.678;23.380;2023-06-22T03:44:45;17.40;;;12.43;;
24273;SDS011;12392;42.678;23.380;2023-06-22T03:47:11;18.30;;;12.38;;
24273;SDS011;12392;42.678;23.380;2023-06-22T03:49:37;19.63;;;12.77;;
24273;SDS011;12392;42.678;23.380;2023-06-22T03:52:03;20.23;;;13.05;;
24273;SDS011;12392;42.678;23.380;2023-06-22T03:54:29;15.05;;;12.10;;
24273;SDS011;12392;42.678;23.380;2023-06-22T03:56:58;16.40;;;11.82;;
24273;SDS011;12392;42.678;23.380;2023-06-22T03:59:24;17.70;;;13.27;;
24273;SDS011;12392;42.678;23.380;2023-06-22T04:01:50;21.48;;;13.25;;
24273;SDS011;12392;42.678;23.380;2023-06-22T04:04:19;21.70;;;13.00;;
24273;SDS011;12392;42.678;23.380;2023-06-22T04:06:45;17.42;;;12.52;;
24273;SDS011;12392;42.678;23.380;2023-06-22T04:09:11;19.92;;;11.60;;
24273;SDS011;12392;42.678;23.380;2023-06-22T04:11:37;16.58;;;11.85;;
24273;SDS011;12392;42.678;23.380;2023-06-22T04:14:02;17.60;;;11.68;;
24273;SDS011;12392;42.678;23.380;2023-06-22T04:16:28;20.55;;;11.75;;
24273;SDS011;12392;42.678;23.380;2023-06-22T04:18:54;13.35;;;11.25;;
24273;SDS011;12392;42.678;23.380;2023-06-22T04:21:19;13.15;;;10.32;;
24273;SDS011;12392;42.678;23.380;2023-06-22T04:23:45;17.08;;;10.80;;
24273;SDS011;12392;42.678;23.380;2023-06-22T04:26:11;17.80;;;11.40;;
24273;SDS011;12392;42.678;23.380;2023-06-22T04:28:38;24.52;;;12.05;;
24273;SDS011;12392;42.678;23.380;2023-06-22T04:31:04;20.40;;;12.20;;
24273;SDS011;12392;42.678;23.380;2023-06-22T04:33:30;60.70;;;21.60;;
24273;SDS011;12392;42.678;23.380;2023-06-22T04:35:56;45.42;;;18.73;;
24273;SDS011;12392;42.678;23.380;2023-06-22T04:38:22;44.35;;;20.13;;
24273;SDS011;12392;42.678;23.380;2023-06-22T04:40:48;31.30;;;15.55;;
24273;SDS011;12392;42.678;23.380;2023-06-22T04:43:14;367.23;;;93.88;;
24273;SDS011;12392;42.678;23.380;2023-06-22T04:45:40;17.48;;;13.20;;
24273;SDS011;12392;42.678;23.380;2023-06-22T04:48:06;18.10;;;13.02;;
24273;SDS011;12392;42.678;23.380;2023-06-22T04:50:34;22.35;;;12.27;;
24273;SDS011;12392;42.678;23.380;2023-06-22T04:53:02;18.17;;;13.50;;
24273;SDS011;12392;42.678;23.380;2023-06-22T04:55:31;19.13;;;13.25;;
24273;SDS011;12392;42.678;23.380;2023-06-22T04:57:57;20.58;;;13.20;;
24273;SDS011;12392;42.678;23.380;2023-06-22T05:00:29;20.45;;;13.25;;
24273;SDS011;12392;42.678;23.380;2023-06-22T05:02:55;23.98;;;13.32;;
24273;SDS011;12392;42.678;23.380;2023-06-22T05:05:22;19.42;;;13.18;;
24273;SDS011;12392;42.678;23.380;2023-06-22T05:07:49;19.08;;;13.00;;
24273;SDS011;12392;42.678;23.380;2023-06-22T05:10:18;22.98;;;13.65;;
24273;SDS011;12392;42.678;23.380;2023-06-22T05:12:44;17.52;;;12.50;;
24273;SDS011;12392;42.678;23.380;2023-06-22T05:15:10;21.45;;;13.10;;
24273;SDS011;12392;42.678;23.380;2023-06-22T05:17:36;16.40;;;12.40;;
24273;SDS011;12392;42.678;23.380;2023-06-22T05:20:08;19.88;;;13.50;;
24273;SDS011;12392;42.678;23.380;2023-06-22T05:22:34;18.75;;;13.00;;
24273;SDS011;12392;42.678;23.380;2023-06-22T05:25:00;19.35;;;13.15;;
24273;SDS011;12392;42.678;23.380;2023-06-22T05:27:26;26.45;;;13.48;;
24273;SDS011;12392;42.678;23.380;2023-06-22T05:29:51;23.08;;;13.20;;
24273;SDS011;12392;42.678;23.380;2023-06-22T05:32:17;19.63;;;11.98;;
24273;SDS011;12392;42.678;23.380;2023-06-22T05:34:43;18.30;;;12.00;;
24273;SDS011;12392;42.678;23.380;2023-06-22T05:37:09;16.73;;;12.20;;
24273;SDS011;12392;42.678;23.380;2023-06-22T05:39:35;16.63;;;11.43;;
24273;SDS011;12392;42.678;23.380;2023-06-22T05:42:03;14.70;;;11.82;;
24273;SDS011;12392;42.678;23.380;2023-06-22T05:44:30;23.65;;;12.52;;
24273;SDS011;12392;42.678;23.380;2023-06-22T05:46:56;18.20;;;11.90;;
24273;SDS011;12392;42.678;23.380;2023-06-22T05:49:23;14.68;;;11.73;;
24273;SDS011;12392;42.678;23.380;2023-06-22T05:51:54;15.48;;;11.38;;
24273;SDS011;12392;42.678;23.380;2023-06-22T05:54:20;15.07;;;11.18;;
24273;SDS011;12392;42.678;23.380;2023-06-22T05:56:45;16.83;;;10.95;;
24273;SDS011;12392;42.678;23.380;2023-06-22T05:59:11;15.65;;;11.70;;
24273;SDS011;12392;42.678;23.380;2023-06-22T06:01:37;15.60;;;11.23;;
24273;SDS011;12392;42.678;23.380;2023-06-22T06:04:05;15.52;;;12.63;;
24273;SDS011;12392;42.678;23.380;2023-06-22T06:06:33;17.33;;;13.05;;
24273;SDS011;12392;42.678;23.380;2023-06-22T06:09:02;15.85;;;12.10;;
24273;SDS011;12392;42.678;23.380;2023-06-22T06:11:29;18.30;;;12.68;;
24273;SDS011;12392;42.678;23.380;2023-06-22T06:13:55;13.23;;;11.40;;
24273;SDS011;12392;42.678;23.380;2023-06-22T06:16:20;16.67;;;11.93;;
24273;SDS011;12392;42.678;23.380;2023-06-22T06:18:46;17.33;;;13.07;;
24273;SDS011;12392;42.678;23.380;2023-06-22T06:21:14;23.50;;;14.90;;
24273;SDS011;12392;42.678;23.380;2023-06-22T06:23:40;19.23;;;12.85;;
24273;SDS011;12392;42.678;23.380;2023-06-22T06:26:07;16.42;;;13.18;;
24273;SDS011;12392;42.678;23.380;2023-06-22T06:28:33;20.25;;;12.57;;
24273;SDS011;12392;42.678;23.380;2023-06-22T06:30:59;15.50;;;11.98;;
24273;SDS011;12392;42.678;23.380;2023-06-22T06:33:25;17.65;;;11.98;;
24273;SDS011;12392;42.678;23.380;2023-06-22T06:35:50;14.95;;;11.77;;
24273;SDS011;12392;42.678;23.380;2023-06-22T06:38:16;19.63;;;12.32;;
24273;SDS011;12392;42.678;23.380;2023-06-22T06:40:42;18.50;;;13.20;;
24273;SDS011;12392;42.678;23.380;2023-06-22T06:43:08;15.38;;;12.07;;
24273;SDS011;12392;42.678;23.380;2023-06-22T06:45:33;17.63;;;12.63;;
24273;SDS011;12392;42.678;23.380;2023-06-22T06:47:59;20.38;;;12.88;;
24273;SDS011;12392;42.678;23.380;2023-06-22T06:50:25;23.70;;;13.20;;
24273;SDS011;12392;42.678;23.380;2023-06-22T06:52:51;20.42;;;12.65;;
24273;SDS011;12392;42.678;23.380;2023-06-22T06:55:17;16.05;;;11.70;;
24273;SDS011;12392;42.678;23.380;2023-06-22T06:57:44;15.88;;;12.13;;
24273;SDS011;12392;42.678;23.380;2023-06-22T07:00:13;19.20;;;11.50;;
24273;SDS011;12392;42.678;23.380;2023-06-22T07:02:40;14.05;;;12.38;;
24273;SDS011;12392;42.678;23.380;2023-06-22T07:05:07;13.75;;;12.30;;
24273;SDS011;12392;42.678;23.380;2023-06-22T07:07:33;21.70;;;11.88;;
24273;SDS011;12392;42.678;23.380;2023-06-22T07:09:59;17.75;;;11.27;;
24273;SDS011;12392;42.678;23.380;2023-06-22T07:12:25;16.58;;;11.75;;
24273;SDS011;12392;42.678;23.380;2023-06-22T07:14:51;19.48;;;11.50;;
24273;SDS011;12392;42.678;23.380;2023-06-22T07:17:17;14.70;;;10.60;;
24273;SDS011;12392;42.678;23.380;2023-06-22T07:19:43;14.35;;;11.20;;
24273;SDS011;12392;42.678;23.380;2023-06-22T07:22:09;19.85;;;11.13;;
24273;SDS011;12392;42.678;23.380;2023-06-22T07:24:34;15.75;;;11.32;;
24273;SDS011;12392;42.678;23.380;2023-06-22T07:27:00;14.35;;;11.30;;
24273;SDS011;12392;42.678;23.380;2023-06-22T07:29:27;13.23;;;10.90;;
24273;SDS011;12392;42.678;23.380;2023-06-22T07:31:53;17.02;;;10.75;;
24273;SDS011;12392;42.678;23.380;2023-06-22T07:34:21;15.88;;;11.50;;
24273;SDS011;12392;42.678;23.380;2023-06-22T07:36:47;17.65;;;10.85;;
24273;SDS011;12392;42.678;23.380;2023-06-22T07:39:12;16.90;;;10.65;;
24273;SDS011;12392;42.678;23.380;2023-06-22T07:41:39;15.60;;;12.02;;
24273;SDS011;12392;42.678;23.380;2023-06-22T07:44:08;15.07;;;12.00;;
24273;SDS011;12392;42.678;23.380;2023-06-22T07:46:34;20.20;;;12.15;;
24273;SDS011;12392;42.678;23.380;2023-06-22T07:49:00;13.10;;;11.00;;
24273;SDS011;12392;42.678;23.380;2023-06-22T07:51:26;14.05;;;11.65;;
24273;SDS011;12392;42.678;23.380;2023-06-22T07:53:52;18.60;;;12.15;;
24273;SDS011;12392;42.678;23.380;2023-06-22T07:56:17;16.52;;;10.85;;
24273;SDS011;12392;42.678;23.380;2023-06-22T07:58:46;14.15;;;10.25;;
24273;SDS011;12392;42.678;23.380;2023-06-22T08:01:13;14.82;;;11.30;;
24273;SDS011;12392;42.678;23.380;2023-06-22T08:03:39;16.70;;;11.50;;
24273;SDS011;12392;42.678;23.380;2023-06-22T08:06:05;16.88;;;11.50;;
24273;SDS011;12392;42.678;23.380;2023-06-22T08:08:34;12.65;;;10.55;;
24273;SDS011;12392;42.678;23.380;2023-06-22T08:11:00;20.83;;;10.70;;
24273;SDS011;12392;42.678;23.380;2023-06-22T08:13:25;13.65;;;11.45;;
24273;SDS011;12392;42.678;23.380;2023-06-22T08:15:51;18.70;;;11.02;;
24273;SDS011;12392;42.678;23.380;2023-06-22T08:18:17;16.73;;;11.25;;
24273;SDS011;12392;42.678;23.380;2023-06-22T08:20:42;15.70;;;10.65;;
24273;SDS011;12392;42.678;23.380;2023-06-22T08:23:08;17.88;;;10.73;;
24273;SDS011;12392;42.678;23.380;2023-06-22T08:25:34;17.02;;;10.60;;
24273;SDS011;12392;42.678;23.380;2023-06-22T08:28:00;15.20;;;11.65;;
24273;SDS011;12392;42.678;23.380;2023-06-22T08:30:26;18.17;;;11.65;;
24273;SDS011;12392;42.678;23.380;2023-06-22T08:32:52;16.30;;;11.75;;
24273;SDS011;12392;42.678;23.380;2023-06-22T08:35:18;15.40;;;12.13;;
24273;SDS011;12392;42.678;23.380;2023-06-22T08:37:45;13.07;;;9.88;;
24273;SDS011;12392;42.678;23.380;2023-06-22T08:40:19;7.45;;;5.85;;
24273;SDS011;12392;42.678;23.380;2023-06-22T08:42:46;15.82;;;9.57;;
24273;SDS011;12392;42.678;23.380;2023-06-22T08:45:12;10.75;;;5.47;;
24273;SDS011;12392;42.678;23.380;2023-06-22T08:47:39;12.23;;;10.23;;
24273;SDS011;12392;42.678;23.380;2023-06-22T08:50:06;9.13;;;6.72;;
24273;SDS011;12392;42.678;23.380;2023-06-22T08:52:33;12.23;;;7.50;;
24273;SDS011;12392;42.678;23.380;2023-06-22T08:54:59;18.88;;;11.30;;
24273;SDS011;12392;42.678;23.380;2023-06-22T08:57:25;10.05;;;8.27;;
24273;SDS011;12392;42.678;23.380;2023-06-22T08:59:54;19.20;;;12.75;;
24273;SDS011;12392;42.678;23.380;2023-06-22T09:02:23;22.73;;;13.48;;
24273;SDS011;12392;42.678;23.380;2023-06-22T09:04:49;21.83;;;13.35;;
24273;SDS011;12392;42.678;23.380;2023-06-22T09:07:20;21.52;;;13.43;;
24273;SDS011;12392;42.678;23.380;2023-06-22T09:09:48;23.92;;;12.85;;
24273;SDS011;12392;42.678;23.380;2023-06-22T09:12:14;15.77;;;9.63;;
24273;SDS011;12392;42.678;23.380;2023-06-22T09:14:39;20.02;;;12.82;;
24273;SDS011;12392;42.678;23.380;2023-06-22T09:17:05;18.85;;;11.85;;
24273;SDS011;12392;42.678;23.380;2023-06-22T09:19:31;21.63;;;12.07;;
24273;SDS011;12392;42.678;23.380;2023-06-22T09:21:59;22.33;;;13.20;;
24273;SDS011;12392;42.678;23.380;2023-06-22T09:24:25;22.67;;;14.13;;
24273;SDS011;12392;42.678;23.380;2023-06-22T09:26:51;19.10;;;11.75;;
24273;SDS011;12392;42.678;23.380;2023-06-22T09:29:17;16.23;;;12.75;;
24273;SDS011;12392;42.678;23.380;2023-06-22T09:31:42;21.63;;;13.43;;
24273;SDS011;12392;42.678;23.380;2023-06-22T09:34:09;17.80;;;12.75;;
24273;SDS011;12392;42.678;23.380;2023-06-22T09:36:35;19.35;;;12.13;;
24273;SDS011;12392;42.678;23.380;2023-06-22T09:39:00;20.20;;;13.60;;
24273;SDS011;12392;42.678;23.380;2023-06-22T09:41:30;16.25;;;11.48;;
24273;SDS011;12392;42.678;23.380;2023-06-22T09:43:56;17.10;;;12.57;;
24273;SDS011;12392;42.678;23.380;2023-06-22T09:46:22;18.98;;;11.63;;
24273;SDS011;12392;42.678;23.380;2023-06-22T09:48:50;19.15;;;11.20;;
24273;SDS011;12392;42.678;23.380;2023-06-22T09:51:16;17.48;;;10.30;;
24273;SDS011;12392;42.678;23.380;2023-06-22T09:53:41;17.00;;;11.25;;
24273;SDS011;12392;42.678;23.380;2023-06-22T09:56:07;13.55;;;10.38;;
24273;SDS011;12392;42.678;23.380;2023-06-22T09:58:39;20.08;;;10.70;;
24273;SDS011;12392;42.678;23.380;2023-06-22T10:01:08;14.43;;;10.90;;
24273;SDS011;12392;42.678;23.380;2023-06-22T10:03:35;15.30;;;11.15;;
24273;SDS011;12392;42.678;23.380;2023-06-22T10:06:01;16.05;;;11.73;;
24273;SDS011;12392;42.678;23.380;2023-06-22T10:08:27;15.98;;;10.77;;
24273;SDS011;12392;42.678;23.380;2023-06-22T10:10:52;12.95;;;11.45;;
24273;SDS011;12392;42.678;23.380;2023-06-22T10:13:18;14.45;;;11.80;;
24273;SDS011;12392;42.678;23.380;2023-06-22T10:15:44;14.23;;;11.40;;
24273;SDS011;12392;42.678;23.380;2023-06-22T10:18:16;15.90;;;12.00;;
24273;SDS011;12392;42.678;23.380;2023-06-22T10:20:43;14.63;;;11.43;;
24273;SDS011;12392;42.678;23.380;2023-06-22T10:23:08;13.00;;;10.48;;
24273;SDS011;12392;42.678;23.380;2023-06-22T10:25:34;11.85;;;10.65;;
24273;SDS011;12392;42.678;23.380;2023-06-22T10:28:00;10.63;;;9.63;;
24273;SDS011;12392;42.678;23.380;2023-06-22T10:30:25;10.70;;;8.48;;
24273;SDS011;12392;42.678;23.380;2023-06-22T10:32:51;12.02;;;10.73;;
24273;SDS011;12392;42.678;23.380;2023-06-22T10:35:17;10.88;;;9.65;;
24273;SDS011;12392;42.678;23.380;2023-06-22T10:37:43;11.63;;;8.75;;
24273;SDS011;12392;42.678;23.380;2023-06-22T10:40:10;10.38;;;9.25;;
24273;SDS011;12392;42.678;23.380;2023-06-22T10:42:40;10.70;;;9.68;;
24273;SDS011;12392;42.678;23.380;2023-06-22T10:45:06;11.35;;;8.40;;
24273;SDS011;12392;42.678;23.380;2023-06-22T10:47:32;8.95;;;8.13;;
24273;SDS011;12392;42.678;23.380;2023-06-22T10:49:58;12.73;;;9.52;;
24273;SDS011;12392;42.678;23.380;2023-06-22T10:52:23;10.20;;;9.20;;
24273;SDS011;12392;42.678;23.380;2023-06-22T10:54:49;13.52;;;8.10;;
24273;SDS011;12392;42.678;23.380;2023-06-22T10:57:14;13.18;;;9.65;;
24273;SDS011;12392;42.678;23.380;2023-06-22T10:59:40;10.60;;;9.60;;
24273;SDS011;12392;42.678;23.380;2023-06-22T11:02:06;9.98;;;9.00;;
24273;SDS011;12392;42.678;23.380;2023-06-22T11:04:31;12.77;;;8.70;;
24273;SDS011;12392;42.678;23.380;2023-06-22T11:06:57;9.63;;;8.63;;
24273;SDS011;12392;42.678;23.380;2023-06-22T11:09:23;9.43;;;8.52;;
24273;SDS011;12392;42.678;23.380;2023-06-22T11:11:49;9.70;;;8.80;;
24273;SDS011;12392;42.678;23.380;2023-06-22T11:14:15;14.15;;;8.90;;
24273;SDS011;12392;42.678;23.380;2023-06-22T11:16:41;11.02;;;8.52;;
24273;SDS011;12392;42.678;23.380;2023-06-22T11:19:07;9.63;;;8.60;;
24273;SDS011;12392;42.678;23.380;2023-06-22T11:21:33;10.38;;;8.50;;
24273;SDS011;12392;42.678;23.380;2023-06-22T11:23:59;10.23;;;9.10;;
24273;SDS011;12392;42.678;23.380;2023-06-22T11:26:25;9.50;;;8.60;;
24273;SDS011;12392;42.678;23.380;2023-06-22T11:28:53;10.32;;;8.15;;
24273;SDS011;12392;42.678;23.380;2023-06-22T11:31:19;10.50;;;9.43;;
24273;SDS011;12392;42.678;23.380;2023-06-22T11:33:45;9.82;;;8.80;;
24273;SDS011;12392;42.678;23.380;2023-06-22T11:36:11;9.98;;;8.98;;
24273;SDS011;12392;42.678;23.380;2023-06-22T11:38:37;9.65;;;8.65;;
24273;SDS011;12392;42.678;23.380;2023-06-22T11:41:05;9.70;;;8.68;;
24273;SDS011;12392;42.678;23.380;2023-06-22T11:43:31;9.10;;;8.20;;
24273;SDS011;12392;42.678;23.380;2023-06-22T11:45:57;9.50;;;8.60;;
24273;SDS011;12392;42.678;23.380;2023-06-22T11:48:23;10.07;;;9.07;;
24273;SDS011;12392;42.678;23.380;2023-06-22T11:50:49;11.70;;;8.52;;
24273;SDS011;12392;42.678;23.380;2023-06-22T11:53:15;9.80;;;8.90;;
24273;SDS011;12392;42.678;23.380;2023-06-22T11:55:44;9.48;;;8.57;;
24273;SDS011;12392;42.678;23.380;2023-06-22T11:58:10;9.38;;;8.38;;
24273;SDS011;12392;42.678;23.380;2023-06-22T12:00:36;10.13;;;8.27;;
24273;SDS011;12392;42.678;23.380;2023-06-22T12:03:02;8.27;;;7.55;;
24273;SDS011;12392;42.678;23.380;2023-06-22T12:05:28;9.90;;;8.90;;
24273;SDS011;12392;42.678;23.380;2023-06-22T12:07:54;11.88;;;8.80;;
24273;SDS011;12392;42.678;23.380;2023-06-22T12:10:20;9.30;;;8.40;;
24273;SDS011;12392;42.678;23.380;2023-06-22T12:12:46;9.85;;;8.45;;
24273;SDS011;12392;42.678;23.380;2023-06-22T12:15:12;11.60;;;8.63;;
24273;SDS011;12392;42.678;23.380;2023-06-22T12:17:38;15.00;;;8.68;;
24273;SDS011;12392;42.678;23.380;2023-06-22T12:20:04;11.68;;;8.38;;
24273;SDS011;12392;42.678;23.380;2023-06-22T12:22:32;10.07;;;8.70;;
24273;SDS011;12392;42.678;23.380;2023-06-22T12:24:57;45.63;;;8.77;;
24273;SDS011;12392;42.678;23.380;2023-06-22T12:27:23;8.38;;;7.32;;
24273;SDS011;12392;42.678;23.380;2023-06-22T12:29:49;55.80;;;8.88;;
24273;SDS011;12392;42.678;23.380;2023-06-22T12:32:15;11.57;;;8.18;;
24273;SDS011;12392;42.678;23.380;2023-06-22T12:34:41;15.82;;;9.00;;
24273;SDS011;12392;42.678;23.380;2023-06-22T12:37:07;14.20;;;8.73;;
24273;SDS011;12392;42.678;23.380;2023-06-22T12:39:33;16.38;;;10.00;;
24273;SDS011;12392;42.678;23.380;2023-06-22T12:41:59;15.20;;;10.05;;
24273;SDS011;12392;42.678;23.380;2023-06-22T12:44:25;16.85;;;9.30;;
24273;SDS011;12392;42.678;23.380;2023-06-22T12:46:51;18.95;;;9.68;;
24273;SDS011;12392;42.678;23.380;2023-06-22T12:49:16;14.82;;;10.05;;
24273;SDS011;12392;42.678;23.380;2023-06-22T12:51:42;20.05;;;9.75;;
24273;SDS011;12392;42.678;23.380;2023-06-22T12:54:09;16.77;;;9.93;;
24273;SDS011;12392;42.678;23.380;2023-06-22T12:56:35;19.17;;;10.02;;
24273;SDS011;12392;42.678;23.380;2023-06-22T12:59:03;13.95;;;9.75;;
24273;SDS011;12392;42.678;23.380;2023-06-22T13:01:29;13.10;;;10.13;;
24273;SDS011;12392;42.678;23.380;2023-06-22T13:03:55;16.67;;;10.20;;
24273;SDS011;12392;42.678;23.380;2023-06-22T13:06:21;17.13;;;8.90;;
24273;SDS011;12392;42.678;23.380;2023-06-22T13:08:47;17.02;;;9.15;;
24273;SDS011;12392;42.678;23.380;2023-06-22T13:11:13;11.38;;;9.20;;
24273;SDS011;12392;42.678;23.380;2023-06-22T13:13:38;14.90;;;9.50;;
24273;SDS011;12392;42.678;23.380;2023-06-22T13:16:05;12.48;;;9.30;;
24273;SDS011;12392;42.678;23.380;2023-06-22T13:18:30;14.40;;;9.32;;
24273;SDS011;12392;42.678;23.380;2023-06-22T13:20:56;14.75;;;9.60;;
24273;SDS011;12392;42.678;23.380;2023-06-22T13:23:23;13.05;;;9.20;;
24273;SDS011;12392;42.678;23.380;2023-06-22T13:25:48;16.48;;;9.75;;
24273;SDS011;12392;42.678;23.380;2023-06-22T13:28:14;16.90;;;9.98;;
24273;SDS011;12392;42.678;23.380;2023-06-22T13:30:41;20.67;;;9.82;;
24273;SDS011;12392;42.678;23.380;2023-06-22T13:33:07;11.25;;;9.45;;
24273;SDS011;12392;42.678;23.380;2023-06-22T13:35:33;16.42;;;9.60;;
24273;SDS011;12392;42.678;23.380;2023-06-22T13:38:00;12.93;;;9.90;;
24273;SDS011;12392;42.678;23.380;2023-06-22T13:40:26;14.23;;;10.50;;
24273;SDS011;12392;42.678;23.380;2023-06-22T13:42:51;14.38;;;9.98;;
24273;SDS011;12392;42.678;23.380;2023-06-22T13:45:17;11.65;;;10.07;;
24273;SDS011;12392;42.678;23.380;2023-06-22T13:47:44;18.17;;;10.15;;
24273;SDS011;12392;42.678;23.380;2023-06-22T13:50:10;10.85;;;9.45;;
24273;SDS011;12392;42.678;23.380;2023-06-22T13:52:37;14.68;;;9.77;;
24273;SDS011;12392;42.678;23.380;2023-06-22T13:55:04;12.23;;;10.00;;
24273;SDS011;12392;42.678;23.380;2023-06-22T13:57:30;16.60;;;9.65;;
24273;SDS011;12392;42.678;23.380;2023-06-22T13:59:56;11.32;;;9.60;;
24273;SDS011;12392;42.678;23.380;2023-06-22T14:02:22;20.35;;;10.45;;
24273;SDS011;12392;42.678;23.380;2023-06-22T14:04:47;40.42;;;12.55;;
24273;SDS011;12392;42.678;23.380;2023-06-22T14:07:13;24.73;;;11.20;;
24273;SDS011;12392;42.678;23.380;2023-06-22T14:09:39;17.77;;;10.85;;
24273;SDS011;12392;42.678;23.380;2023-06-22T14:12:05;15.55;;;11.30;;
24273;SDS011;12392;42.678;23.380;2023-06-22T14:14:31;17.13;;;11.25;;
24273;SDS011;12392;42.678;23.380;2023-06-22T14:16:58;17.65;;;10.63;;
24273;SDS011;12392;42.678;23.380;2023-06-22T14:19:24;18.50;;;11.25;;
24273;SDS011;12392;42.678;23.380;2023-06-22T14:21:49;14.38;;;10.27;;